createdAt,value
2022-08-08T00:02:43.091Z,6.70
2022-08-08T00:05:14.833Z,6.68
2022-08-08T00:07:52.879Z,7.30
2022-08-08T00:10:36.716Z,7.53
2022-08-08T00:13:11.534Z,7.30
2022-08-08T00:15:58.276Z,8.35
2022-08-08T00:18:37.834Z,8.35
2022-08-08T00:21:07.838Z,8.55
2022-08-08T00:23:47.713Z,8.88
2022-08-08T00:26:29.354Z,8.48
2022-08-08T00:29:08.104Z,8.48
2022-08-08T00:32:20.427Z,8.98
2022-08-08T00:35:05.807Z,8.35
2022-08-08T00:37:47.574Z,8.30
2022-08-08T00:41:11.865Z,8.10
2022-08-08T00:44:04.225Z,7.10
2022-08-08T00:46:57.214Z,7.68
2022-08-08T00:49:50.460Z,7.93
2022-08-08T00:52:48.757Z,7.97
2022-08-08T00:56:03.572Z,7.10
2022-08-08T00:59:44.538Z,7.20
2022-08-08T01:03:59.402Z,7.15
2022-08-08T01:06:27.659Z,6.78
2022-08-08T01:09:36.453Z,6.70
2022-08-08T01:12:34.090Z,7.55
2022-08-08T01:15:44.000Z,7.45
2022-08-08T01:18:53.566Z,7.70
2022-08-08T01:22:12.669Z,7.40
2022-08-08T01:25:05.086Z,8.13
2022-08-08T01:28:02.178Z,8.15
2022-08-08T01:32:13.360Z,7.38
2022-08-08T01:34:52.557Z,7.40
2022-08-08T01:38:09.282Z,7.70
2022-08-08T01:40:47.611Z,6.70
2022-08-08T01:43:38.810Z,7.57
2022-08-08T01:46:28.461Z,6.85
2022-08-08T01:49:06.265Z,7.47
2022-08-08T01:52:32.462Z,6.88
2022-08-08T01:55:27.052Z,7.22
2022-08-08T01:58:38.229Z,7.18
2022-08-08T02:01:18.906Z,7.10
2022-08-08T02:04:01.754Z,6.45
2022-08-08T02:06:51.994Z,6.35
2022-08-08T02:10:01.786Z,6.18
2022-08-08T02:12:24.900Z,6.28
2022-08-08T02:15:01.102Z,6.50
2022-08-08T02:17:43.297Z,6.60
2022-08-08T02:21:02.171Z,6.72
2022-08-08T02:23:16.451Z,6.32
2022-08-08T02:26:00.380Z,6.32
2022-08-08T02:28:53.661Z,6.53
2022-08-08T02:31:59.122Z,6.10
2022-08-08T02:35:11.231Z,6.47
2022-08-08T02:38:15.546Z,6.45
2022-08-08T02:41:58.169Z,6.35
2022-08-08T02:44:37.500Z,6.90
2022-08-08T02:48:10.186Z,6.35
2022-08-08T02:50:56.382Z,7.13
2022-08-08T02:53:57.492Z,6.47
2022-08-08T02:57:12.154Z,7.22
2022-08-08T03:00:29.610Z,7.13
2022-08-08T03:05:04.855Z,6.65
2022-08-08T03:07:19.438Z,6.88
2022-08-08T03:10:33.021Z,6.43
2022-08-08T03:16:01.429Z,6.55
2022-08-08T03:16:37.253Z,6.95
2022-08-08T03:19:27.960Z,6.05
2022-08-08T03:21:59.663Z,5.97
2022-08-08T03:24:29.900Z,6.35
2022-08-08T03:27:08.247Z,6.13
2022-08-08T03:29:55.596Z,6.45
2022-08-08T03:32:41.541Z,6.00
2022-08-08T03:35:11.876Z,5.90
2022-08-08T03:37:59.377Z,6.07
2022-08-08T03:40:31.909Z,6.25
2022-08-08T03:43:15.681Z,6.13
2022-08-08T03:46:05.005Z,6.25
2022-08-08T03:49:09.854Z,5.78
2022-08-08T03:51:26.435Z,5.90
2022-08-08T03:54:09.900Z,5.90
2022-08-08T03:56:46.365Z,6.03
2022-08-08T03:59:22.735Z,5.60
2022-08-08T04:02:12.674Z,5.50
2022-08-08T04:04:40.260Z,6.38
2022-08-08T04:07:10.117Z,6.15
2022-08-08T04:10:02.969Z,5.78
2022-08-08T04:12:35.699Z,5.80
2022-08-08T04:15:04.075Z,5.93
2022-08-08T04:17:58.336Z,5.50
2022-08-08T04:20:20.648Z,5.80
2022-08-08T04:22:58.348Z,5.93
2022-08-08T04:25:30.125Z,5.97
2022-08-08T04:28:37.277Z,6.07
2022-08-08T04:30:51.414Z,5.85
2022-08-08T04:33:27.055Z,5.60
2022-08-08T04:35:56.057Z,6.15
2022-08-08T04:38:24.421Z,5.18
2022-08-08T04:40:54.276Z,6.25
2022-08-08T04:43:32.411Z,5.80
2022-08-08T04:46:14.763Z,5.63
2022-08-08T04:48:43.486Z,6.00
2022-08-08T04:51:12.201Z,6.53
2022-08-08T04:54:38.167Z,5.63
2022-08-08T04:56:42.850Z,5.57
2022-08-08T04:59:15.565Z,5.30
2022-08-08T05:01:48.779Z,5.75
2022-08-08T05:04:17.600Z,6.10
2022-08-08T05:06:47.444Z,6.03
2022-08-08T05:09:20.601Z,5.15
2022-08-08T05:11:56.551Z,6.35
2022-08-08T05:14:29.262Z,6.10
2022-08-08T05:17:01.576Z,5.80
2022-08-08T05:20:12.631Z,6.38
2022-08-08T05:22:18.521Z,6.35
2022-08-08T05:24:48.214Z,5.65
2022-08-08T05:27:17.692Z,6.82
2022-08-08T05:29:51.725Z,5.78
2022-08-08T05:32:28.068Z,5.95
2022-08-08T05:35:05.108Z,6.32
2022-08-08T05:37:52.812Z,6.03
2022-08-08T05:40:28.622Z,6.05
2022-08-08T05:43:38.122Z,6.47
2022-08-08T05:46:03.646Z,6.65
2022-08-08T05:48:35.966Z,6.68
2022-08-08T05:51:13.579Z,6.20
2022-08-08T05:54:25.992Z,6.50
2022-08-08T05:56:42.179Z,6.43
2022-08-08T05:59:59.426Z,7.28
2022-08-08T06:02:38.713Z,6.32
2022-08-08T06:05:34.170Z,6.47
2022-08-08T06:08:02.895Z,6.43
2022-08-08T06:10:41.082Z,6.30
2022-08-08T06:13:12.372Z,6.47
2022-08-08T06:15:51.000Z,6.55
2022-08-08T06:18:25.370Z,6.43
2022-08-08T06:20:58.674Z,6.45
2022-08-08T06:23:53.027Z,7.05
2022-08-08T06:26:42.859Z,6.40
2022-08-08T06:29:26.323Z,6.30
2022-08-08T06:32:10.678Z,6.57
2022-08-08T06:34:56.463Z,6.72
2022-08-08T06:37:40.213Z,6.30
2022-08-08T06:40:16.194Z,6.50
2022-08-08T06:42:56.985Z,6.50
2022-08-08T06:45:25.597Z,6.05
2022-08-08T06:48:00.873Z,6.80
2022-08-08T06:50:33.677Z,5.88
2022-08-08T06:53:13.726Z,6.40
2022-08-08T06:56:00.676Z,6.30
2022-08-08T06:58:33.664Z,6.78
2022-08-08T07:01:52.801Z,6.40
2022-08-08T07:04:37.714Z,7.30
2022-08-08T07:06:50.487Z,6.45
2022-08-08T07:09:22.083Z,6.75
2022-08-08T07:11:58.455Z,5.88
2022-08-08T07:14:35.419Z,6.72
2022-08-08T07:17:08.926Z,6.40
2022-08-08T07:19:47.453Z,6.05
2022-08-08T07:22:23.329Z,6.22
2022-08-08T07:25:00.200Z,6.15
2022-08-08T07:27:47.291Z,6.35
2022-08-08T07:30:25.878Z,6.97
2022-08-08T07:32:59.230Z,7.13
2022-08-08T07:35:30.890Z,6.65
2022-08-08T07:38:10.488Z,6.53
2022-08-08T07:40:50.587Z,5.95
2022-08-08T07:43:35.105Z,7.05
2022-08-08T07:46:23.909Z,6.55
2022-08-08T07:48:55.518Z,6.53
2022-08-08T07:51:45.349Z,6.38
2022-08-08T07:54:26.535Z,6.47
2022-08-08T07:57:10.389Z,6.43
2022-08-08T07:59:49.001Z,5.88
2022-08-08T08:02:34.549Z,6.22
2022-08-08T08:05:15.262Z,5.75
2022-08-08T08:07:45.885Z,7.07
2022-08-08T08:10:18.730Z,6.50
2022-08-08T08:13:25.202Z,5.50
2022-08-08T08:16:12.031Z,5.65
2022-08-08T08:18:52.075Z,6.00
2022-08-08T08:21:35.525Z,5.93
2022-08-08T08:24:16.315Z,5.30
2022-08-08T08:26:52.718Z,5.63
2022-08-08T08:29:27.994Z,5.43
2022-08-08T08:31:58.131Z,6.07
2022-08-08T08:34:31.934Z,5.68
2022-08-08T08:37:03.306Z,5.82
2022-08-08T08:40:00.569Z,5.38
2022-08-08T08:42:29.035Z,5.90
2022-08-08T08:45:21.914Z,6.30
2022-08-08T08:47:54.426Z,5.82
2022-08-08T08:50:33.258Z,5.50
2022-08-08T08:53:55.025Z,5.32
2022-08-08T08:56:01.892Z,5.07
2022-08-08T08:58:35.679Z,5.35
2022-08-08T09:01:09.637Z,5.72
2022-08-08T09:03:46.655Z,5.65
2022-08-08T09:06:28.839Z,5.82
2022-08-08T09:09:26.672Z,5.65
2022-08-08T09:12:02.115Z,4.93
2022-08-08T09:14:42.882Z,5.30
2022-08-08T09:17:17.897Z,5.50
2022-08-08T09:21:58.680Z,5.72
2022-08-08T09:22:36.136Z,5.20
2022-08-08T09:25:09.601Z,5.30
2022-08-08T09:27:55.898Z,5.65
2022-08-08T09:30:29.821Z,5.00
2022-08-08T09:33:12.859Z,5.35
2022-08-08T09:35:50.910Z,5.03
2022-08-08T09:38:53.450Z,6.00
2022-08-08T09:42:14.437Z,5.68
2022-08-08T09:44:36.985Z,5.82
2022-08-08T09:48:02.662Z,5.30
2022-08-08T09:50:03.395Z,5.55
2022-08-08T09:52:55.776Z,5.78
2022-08-08T09:55:51.747Z,5.40
2022-08-08T09:58:25.824Z,6.10
2022-08-08T10:01:03.272Z,5.78
2022-08-08T10:03:56.178Z,5.53
2022-08-08T10:06:26.738Z,5.30
2022-08-08T10:08:58.131Z,5.53
2022-08-08T10:12:26.221Z,4.95
2022-08-08T10:14:28.318Z,5.50
2022-08-08T10:17:38.781Z,5.15
2022-08-08T10:19:59.936Z,5.07
2022-08-08T10:22:30.035Z,4.65
2022-08-08T10:25:04.802Z,5.60
2022-08-08T10:27:43.108Z,4.97
2022-08-08T10:30:16.666Z,5.20
2022-08-08T10:33:01.844Z,5.97
2022-08-08T10:36:07.419Z,5.30
2022-08-08T10:38:25.266Z,5.57
2022-08-08T10:40:55.741Z,5.40
2022-08-08T10:43:37.729Z,5.60
2022-08-08T10:46:29.867Z,5.80
2022-08-08T10:49:00.933Z,5.20
2022-08-08T10:51:40.815Z,7.40
2022-08-08T10:54:21.573Z,5.25
2022-08-08T10:56:58.765Z,5.78
2022-08-08T10:59:31.223Z,4.97
2022-08-08T11:02:08.536Z,5.28
2022-08-08T11:04:53.769Z,4.97
2022-08-08T11:08:30.044Z,4.85
2022-08-08T11:10:28.860Z,5.38
2022-08-08T11:13:28.219Z,5.28
2022-08-08T11:15:52.295Z,5.22
2022-08-08T11:18:30.784Z,5.75
2022-08-08T11:21:09.913Z,6.07
